createdAt,value
2022-12-05T00:00:34.348Z,-13.92
2022-12-05T00:03:37.654Z,-13.92
2022-12-05T00:06:42.689Z,-13.91
2022-12-05T00:09:45.837Z,-13.89
2022-12-05T00:12:49.268Z,-13.87
2022-12-05T00:15:52.426Z,-13.82
2022-12-05T00:18:56.087Z,-13.75
2022-12-05T00:21:59.313Z,-13.74
2022-12-05T00:25:02.506Z,-13.68
2022-12-05T00:28:05.781Z,-13.68
2022-12-05T00:31:14.584Z,-13.67
2022-12-05T00:34:17.831Z,-13.61
2022-12-05T00:37:21.124Z,-13.54
2022-12-05T00:40:24.314Z,-13.44
2022-12-05T00:43:28.296Z,-13.39
2022-12-05T00:46:33.333Z,-13.32
2022-12-05T00:49:36.853Z,-13.25
2022-12-05T00:52:39.951Z,-13.22
2022-12-05T00:55:43.127Z,-13.16
2022-12-05T00:58:47.246Z,-13.10
2022-12-05T01:01:51.877Z,-13.07
2022-12-05T01:04:55.177Z,-13.07
2022-12-05T01:07:58.394Z,-13.01
2022-12-05T01:11:02.138Z,-12.93
2022-12-05T01:14:05.672Z,-12.85
2022-12-05T01:17:08.907Z,-12.80
2022-12-05T01:20:12.592Z,-12.77
2022-12-05T01:23:15.990Z,-12.72
2022-12-05T01:26:21.137Z,-12.65
2022-12-05T01:29:25.509Z,-12.55
2022-12-05T01:32:28.665Z,-12.49
2022-12-05T01:35:36.361Z,-12.39
2022-12-05T01:38:43.579Z,-12.32
2022-12-05T01:41:49.449Z,-12.25
2022-12-05T01:44:52.767Z,-12.17
2022-12-05T01:47:56.169Z,-12.08
2022-12-05T01:51:00.448Z,-12.04
2022-12-05T01:54:04.654Z,-11.94
2022-12-05T01:57:11.516Z,-11.91
2022-12-05T02:00:18.399Z,-11.82
2022-12-05T02:03:22.924Z,-11.72
2022-12-05T02:06:27.290Z,-11.69
2022-12-05T02:09:30.436Z,-11.63
2022-12-05T02:12:34.283Z,-11.52
2022-12-05T02:16:01.888Z,-11.49
2022-12-05T02:19:53.723Z,-11.45
2022-12-05T02:23:47.773Z,-11.42
2022-12-05T02:26:50.984Z,-11.36
2022-12-05T02:29:56.918Z,-11.30
2022-12-05T02:33:30.292Z,-11.23
2022-12-05T02:36:42.058Z,-11.16
2022-12-05T02:40:00.632Z,-11.14
2022-12-05T02:43:27.092Z,-11.11
2022-12-05T02:46:32.986Z,-11.04
2022-12-05T02:49:37.918Z,-11.01
2022-12-05T02:52:42.956Z,-10.97
2022-12-05T02:55:47.316Z,-10.82
2022-12-05T02:58:55.348Z,-10.69
2022-12-05T03:01:58.588Z,-10.62
2022-12-05T03:05:39.188Z,-10.51
2022-12-05T03:08:54.854Z,-10.38
2022-12-05T03:12:13.835Z,-10.25
2022-12-05T03:15:19.262Z,-10.17
2022-12-05T03:18:22.517Z,-10.13
2022-12-05T03:21:35.240Z,-10.06
2022-12-05T03:24:42.528Z,-10.02
2022-12-05T03:28:03.809Z,-9.92
2022-12-05T03:31:14.813Z,-9.75
2022-12-05T03:34:27.748Z,-9.59
2022-12-05T03:37:54.262Z,-9.62
2022-12-05T03:41:03.046Z,-9.52
2022-12-05T03:44:45.612Z,-9.28
2022-12-05T03:48:00.397Z,-9.14
2022-12-05T04:01:44.512Z,-8.71
2022-12-05T04:04:56.951Z,-8.57
2022-12-05T04:08:06.777Z,-8.52
2022-12-05T04:11:22.966Z,-8.33
2022-12-05T04:14:37.981Z,-8.23
2022-12-05T04:18:00.048Z,-8.07
2022-12-05T04:21:23.736Z,-8.03
2022-12-05T04:24:51.349Z,-7.91
2022-12-05T04:28:21.726Z,-7.74
2022-12-05T04:31:32.218Z,-7.85
2022-12-05T04:34:38.044Z,-8.10
2022-12-05T04:37:45.872Z,-8.01
2022-12-05T04:41:08.246Z,-7.71
2022-12-05T04:44:18.276Z,-7.62
2022-12-05T04:47:27.830Z,-7.54
2022-12-05T04:50:34.280Z,-7.40
2022-12-05T04:53:38.139Z,-7.20
2022-12-05T04:56:44.856Z,-7.26
2022-12-05T04:59:48.404Z,-7.39
2022-12-05T05:03:06.445Z,-7.37
2022-12-05T05:06:12.787Z,-7.29
2022-12-05T05:09:15.949Z,-7.36
2022-12-05T05:12:19.483Z,-7.20
2022-12-05T05:15:22.884Z,-7.08
2022-12-05T05:18:26.110Z,-6.87
2022-12-05T05:21:35.644Z,-6.65
2022-12-05T05:24:38.757Z,-6.56
2022-12-05T05:27:41.993Z,-6.65
2022-12-05T05:30:45.278Z,-6.78
2022-12-05T05:33:54.220Z,-6.84
2022-12-05T05:36:57.374Z,-6.81
2022-12-05T05:40:02.085Z,-6.82
2022-12-05T05:43:08.261Z,-7.08
2022-12-05T05:46:12.792Z,-7.41
2022-12-05T05:49:16.047Z,-7.57
2022-12-05T05:52:19.377Z,-7.54
2022-12-05T05:55:22.612Z,-7.51
2022-12-05T05:58:25.909Z,-7.41
2022-12-05T06:01:30.213Z,-7.40
2022-12-05T06:04:36.240Z,-7.34
2022-12-05T06:07:39.591Z,-7.31
2022-12-05T06:10:42.773Z,-7.26
2022-12-05T06:13:46.120Z,-7.37
2022-12-05T06:16:49.330Z,-7.44
2022-12-05T06:19:52.605Z,-7.46
2022-12-05T06:22:55.946Z,-7.39
2022-12-05T06:25:59.091Z,-7.40
2022-12-05T06:29:02.425Z,-7.51
2022-12-05T06:32:05.983Z,-7.54
2022-12-05T06:35:16.105Z,-7.62
2022-12-05T06:38:19.307Z,-7.75
2022-12-05T06:41:25.014Z,-7.79
2022-12-05T06:44:29.355Z,-7.73
2022-12-05T06:47:33.064Z,-7.68
2022-12-05T06:50:36.291Z,-7.67
2022-12-05T06:53:39.907Z,-7.59
2022-12-05T06:56:43.224Z,-7.65
2022-12-05T06:59:46.509Z,-7.73
2022-12-05T07:02:52.555Z,-7.70
2022-12-05T07:05:55.898Z,-7.74
2022-12-05T07:08:59.064Z,-7.73
2022-12-05T07:12:02.317Z,-7.65
2022-12-05T07:15:05.915Z,-7.68
2022-12-05T07:18:09.392Z,-7.67
2022-12-05T07:21:15.009Z,-7.62
2022-12-05T07:24:18.428Z,-7.57
2022-12-05T07:27:26.828Z,-7.52
2022-12-05T07:30:30.336Z,-7.50
2022-12-05T07:33:33.704Z,-7.48
2022-12-05T07:36:37.348Z,-7.62
2022-12-05T07:39:40.580Z,-7.68
2022-12-05T07:42:44.173Z,-7.67
2022-12-05T07:45:47.542Z,-7.70
2022-12-05T07:48:51.704Z,-7.82
2022-12-05T07:51:54.869Z,-7.99
2022-12-05T07:54:58.853Z,-8.01
2022-12-05T07:58:02.044Z,-7.98
2022-12-05T08:01:23.027Z,-7.98
2022-12-05T08:04:28.880Z,-8.06
2022-12-05T08:07:32.242Z,-8.17
2022-12-05T08:10:36.247Z,-8.23
2022-12-05T08:13:40.061Z,-8.33
2022-12-05T08:16:43.391Z,-8.37
2022-12-05T08:19:47.014Z,-8.45
2022-12-05T08:22:54.256Z,-8.55
2022-12-05T08:25:57.584Z,-8.59
2022-12-05T08:29:06.591Z,-8.65
2022-12-05T08:32:09.962Z,-8.72
2022-12-05T08:35:13.329Z,-8.75
2022-12-05T08:38:16.523Z,-8.73
2022-12-05T08:44:36.299Z,-8.79
2022-12-05T08:47:39.536Z,-8.78
2022-12-05T08:50:43.063Z,-8.76
2022-12-05T08:53:47.411Z,-8.76
2022-12-05T08:56:53.878Z,-8.81
2022-12-05T09:13:10.554Z,-8.75
2022-12-05T09:16:37.003Z,-8.73
2022-12-05T09:19:42.447Z,-8.69
2022-12-05T09:22:45.683Z,-8.69
2022-12-05T09:25:58.809Z,-8.68
2022-12-05T09:29:04.175Z,-8.65
2022-12-05T09:32:09.173Z,-8.64
2022-12-05T09:35:14.959Z,-8.65
2022-12-05T09:38:19.969Z,-8.68
2022-12-05T09:41:46.336Z,-8.67
2022-12-05T09:45:00.833Z,-8.64
2022-12-05T09:48:20.461Z,-8.65
2022-12-05T09:51:24.425Z,-8.69
2022-12-05T09:57:52.253Z,-8.62
2022-12-05T10:01:23.399Z,-8.65
2022-12-05T10:04:32.481Z,-8.68
2022-12-05T10:07:50.705Z,-8.67
2022-12-05T10:11:22.055Z,-8.61
2022-12-05T10:14:47.356Z,-8.62
2022-12-05T10:17:57.409Z,-8.59
2022-12-05T10:21:05.899Z,-8.62
2022-12-05T10:24:19.321Z,-8.64
2022-12-05T10:27:34.136Z,-8.59
2022-12-05T10:30:42.781Z,-8.59
2022-12-05T10:33:51.525Z,-8.59
2022-12-05T10:37:31.715Z,-8.59
2022-12-05T10:40:39.064Z,-8.59
2022-12-05T10:43:45.279Z,-8.57
2022-12-05T10:46:49.238Z,-8.54
2022-12-05T10:49:54.233Z,-8.54
2022-12-05T10:52:59.652Z,-8.52
2022-12-05T10:59:47.382Z,-8.57
2022-12-05T11:02:51.687Z,-8.57
2022-12-05T11:05:57.634Z,-8.55
2022-12-05T11:09:18.837Z,-8.52
2022-12-05T11:12:22.993Z,-8.51
2022-12-05T11:15:32.141Z,-8.50
2022-12-05T11:18:35.939Z,-8.52
2022-12-05T11:21:45.565Z,-8.54
2022-12-05T11:24:48.716Z,-8.55
2022-12-05T11:27:52.288Z,-8.58
2022-12-05T11:31:02.102Z,-8.58
2022-12-05T11:34:20.974Z,-8.55
2022-12-05T11:37:30.552Z,-8.55
2022-12-05T11:40:55.575Z,-8.52
2022-12-05T11:44:08.773Z,-8.51
2022-12-05T11:47:54.071Z,-8.50
2022-12-05T11:51:15.427Z,-8.57
2022-12-05T11:59:11.938Z,-8.52
2022-12-05T12:02:21.341Z,-8.51
2022-12-05T12:06:09.760Z,-8.51
2022-12-05T12:10:04.566Z,-8.50
2022-12-05T12:13:44.198Z,-8.45
2022-12-05T12:17:05.381Z,-8.47
2022-12-05T12:20:42.172Z,-8.50
2022-12-05T12:24:12.572Z,-8.48
2022-12-05T12:27:28.801Z,-8.44
2022-12-05T12:31:01.946Z,-8.47
2022-12-05T12:34:28.157Z,-8.44
2022-12-05T12:38:14.795Z,-8.45
2022-12-05T12:41:36.518Z,-8.48
2022-12-05T12:44:54.585Z,-8.45
2022-12-05T12:48:30.263Z,-8.48
2022-12-05T12:51:36.597Z,-8.47
2022-12-05T12:55:21.044Z,-8.51
2022-12-05T12:58:39.340Z,-8.48
2022-12-05T13:01:45.862Z,-8.51
2022-12-05T13:05:07.884Z,-8.47
2022-12-05T13:08:42.189Z,-8.48
2022-12-05T13:11:47.609Z,-8.51
2022-12-05T13:14:55.806Z,-8.50
2022-12-05T13:17:59.002Z,-8.48
2022-12-05T13:21:07.943Z,-8.47
2022-12-05T13:24:14.413Z,-8.47
2022-12-05T13:27:20.562Z,-8.47
2022-12-05T13:30:28.766Z,-8.48
2022-12-05T13:33:33.853Z,-8.45
2022-12-05T13:37:01.673Z,-8.51
2022-12-05T13:40:24.842Z,-8.41
2022-12-05T13:43:30.397Z,-8.44
2022-12-05T13:46:36.926Z,-8.42
2022-12-05T13:50:03.959Z,-8.42
2022-12-05T13:53:43.516Z,-8.45
2022-12-05T13:56:48.907Z,-8.42
2022-12-05T14:00:09.915Z,-8.40
2022-12-05T14:03:37.328Z,-8.34
2022-12-05T14:06:43.667Z,-8.31
2022-12-05T14:10:01.991Z,-8.33
2022-12-05T14:13:57.021Z,-8.31
2022-12-05T14:16:53.616Z,-8.24
2022-12-05T14:20:19.493Z,-8.27
2022-12-05T14:31:41.828Z,-8.33
2022-12-05T14:35:14.964Z,-8.38
2022-12-05T14:38:38.994Z,-8.38
2022-12-05T14:41:54.632Z,-8.41
2022-12-05T14:45:26.579Z,-8.40
2022-12-05T14:48:32.688Z,-8.36
2022-12-05T14:51:56.452Z,-8.34
2022-12-05T14:55:08.598Z,-8.29
2022-12-05T14:58:51.118Z,-8.30
2022-12-05T15:02:03.264Z,-8.36
2022-12-05T15:05:32.247Z,-8.30
2022-12-05T15:08:51.490Z,-8.31
2022-12-05T15:11:55.611Z,-8.30
2022-12-05T15:15:17.977Z,-8.31
2022-12-05T15:18:29.721Z,-8.31
2022-12-05T15:21:38.252Z,-8.30
2022-12-05T15:24:41.678Z,-8.36
2022-12-05T15:28:03.595Z,-8.34
2022-12-05T15:31:12.588Z,-8.33
2022-12-05T15:34:39.043Z,-8.29
2022-12-05T15:38:02.951Z,-8.31
2022-12-05T15:41:06.262Z,-8.29
2022-12-05T15:44:12.742Z,-8.27
2022-12-05T15:47:26.415Z,-8.24
2022-12-05T15:50:40.435Z,-8.22
2022-12-05T15:54:12.357Z,-8.20
2022-12-05T15:57:24.111Z,-8.23
2022-12-05T16:00:28.853Z,-8.16
2022-12-05T16:03:37.836Z,-8.13
2022-12-05T16:06:43.474Z,-8.13
2022-12-05T16:09:48.018Z,-8.13
2022-12-05T16:12:53.279Z,-8.13
2022-12-05T16:15:56.585Z,-8.12
2022-12-05T16:19:05.904Z,-8.13
2022-12-05T16:22:10.781Z,-8.16
2022-12-05T16:25:34.408Z,-8.12
2022-12-05T16:28:37.668Z,-8.12
2022-12-05T16:31:42.906Z,-8.10
2022-12-05T16:34:46.156Z,-8.06
2022-12-05T16:37:49.716Z,-8.05
2022-12-05T16:40:57.943Z,-8.06
2022-12-05T16:44:00.883Z,-8.05
2022-12-05T16:47:04.131Z,-8.07
2022-12-05T16:50:33.003Z,-8.10
2022-12-05T16:53:36.147Z,-8.12
2022-12-05T16:56:40.338Z,-8.09
2022-12-05T16:59:44.295Z,-8.06
2022-12-05T17:02:47.738Z,-8.02
2022-12-05T17:05:51.353Z,-8.03
2022-12-05T17:08:55.891Z,-8.02
2022-12-05T17:12:22.332Z,-7.95
2022-12-05T17:15:25.508Z,-7.95
2022-12-05T17:18:31.826Z,-7.96
2022-12-05T17:21:36.006Z,-7.94
2022-12-05T17:24:39.393Z,-7.88
2022-12-05T17:27:42.557Z,-7.89
2022-12-05T17:30:45.796Z,-7.91
2022-12-05T17:33:50.588Z,-7.88
2022-12-05T17:36:53.741Z,-7.82
2022-12-05T17:39:57.299Z,-7.84
2022-12-05T17:43:00.888Z,-7.78
2022-12-05T17:46:04.185Z,-7.82
2022-12-05T17:49:07.330Z,-7.86
2022-12-05T17:52:27.142Z,-7.89
2022-12-05T17:55:30.635Z,-7.89
2022-12-05T17:58:34.187Z,-7.86
2022-12-05T18:01:37.423Z,-7.85
2022-12-05T18:04:40.653Z,-7.91
2022-12-05T18:07:46.107Z,-7.89
2022-12-05T18:10:51.102Z,-7.89
2022-12-05T18:13:54.233Z,-7.89
2022-12-05T18:16:57.538Z,-7.86
2022-12-05T18:20:00.817Z,-7.82
2022-12-05T18:23:04.015Z,-7.77
2022-12-05T18:26:09.458Z,-7.78
2022-12-05T18:29:12.722Z,-7.75
2022-12-05T18:32:16.551Z,-7.75
2022-12-05T18:35:19.749Z,-7.71
2022-12-05T18:38:22.929Z,-7.74
2022-12-05T18:41:29.275Z,-7.77
2022-12-05T18:44:32.787Z,-7.73
2022-12-05T18:47:35.967Z,-7.65
2022-12-05T18:50:39.176Z,-7.62
2022-12-05T18:53:42.958Z,-7.65
2022-12-05T18:56:46.731Z,-7.65
2022-12-05T18:59:52.632Z,-7.65
2022-12-05T19:02:55.805Z,-7.65
2022-12-05T19:05:58.946Z,-7.64
2022-12-05T19:09:05.029Z,-7.67
2022-12-05T19:12:08.705Z,-7.68
2022-12-05T19:15:13.904Z,-7.59
2022-12-05T19:18:17.147Z,-7.59
2022-12-05T19:21:20.324Z,-7.55
2022-12-05T19:24:23.675Z,-7.59
2022-12-05T19:27:26.873Z,-7.59
2022-12-05T19:30:31.222Z,-7.59
2022-12-05T19:33:43.968Z,-7.57
2022-12-05T19:36:47.763Z,-7.55
2022-12-05T19:39:52.346Z,-7.59
2022-12-05T19:42:55.523Z,-7.57
2022-12-05T19:45:59.300Z,-7.58
2022-12-05T19:49:07.638Z,-7.58
2022-12-05T19:52:10.521Z,-7.61
2022-12-05T19:55:14.021Z,-7.59
2022-12-05T19:58:17.290Z,-7.59
2022-12-05T20:01:26.609Z,-7.58
2022-12-05T20:04:29.849Z,-7.62
2022-12-05T20:07:33.049Z,-7.68
2022-12-05T20:10:38.407Z,-7.71
2022-12-05T20:13:47.103Z,-7.68
2022-12-05T20:16:51.229Z,-7.67
2022-12-05T20:19:54.477Z,-7.64
2022-12-05T20:22:57.688Z,-7.70
2022-12-05T20:26:28.127Z,-7.70
2022-12-05T20:29:31.297Z,-7.65
2022-12-05T20:32:35.300Z,-7.64
2022-12-05T20:35:38.813Z,-7.58
2022-12-05T20:38:42.867Z,-7.64
2022-12-05T20:41:46.725Z,-7.59
2022-12-05T20:44:50.152Z,-7.64
2022-12-05T20:47:53.278Z,-7.59
2022-12-05T20:50:56.361Z,-7.58
2022-12-05T20:54:01.327Z,-7.59
2022-12-05T20:57:04.571Z,-7.65
2022-12-05T21:00:08.575Z,-7.61
2022-12-05T21:03:17.036Z,-7.55
2022-12-05T21:06:24.401Z,-7.54
2022-12-05T21:09:29.092Z,-7.52
2022-12-05T21:12:33.825Z,-7.51
2022-12-05T21:15:37.751Z,-7.50
2022-12-05T21:18:41.607Z,-7.50
2022-12-05T21:21:44.779Z,-7.47
2022-12-05T21:24:48.032Z,-7.40
2022-12-05T21:27:51.269Z,-7.40
2022-12-05T21:30:54.557Z,-7.41
2022-12-05T21:34:00.244Z,-7.36
2022-12-05T21:37:03.969Z,-7.31
2022-12-05T21:40:08.940Z,-7.33
2022-12-05T21:43:13.155Z,-7.33
2022-12-05T21:46:16.386Z,-7.33
2022-12-05T21:49:19.635Z,-7.33
2022-12-05T21:52:23.034Z,-7.24
2022-12-05T21:55:26.414Z,-7.26
2022-12-05T21:58:29.817Z,-7.27
2022-12-05T22:01:33.599Z,-7.26
2022-12-05T22:04:36.792Z,-7.19
2022-12-05T22:07:39.931Z,-7.18
2022-12-05T22:10:43.129Z,-7.13
2022-12-05T22:13:46.835Z,-7.06
2022-12-05T22:16:50.316Z,-7.06
2022-12-05T22:19:53.493Z,-7.02
2022-12-05T22:22:56.688Z,-6.94
2022-12-05T22:26:05.200Z,-6.89
2022-12-05T22:29:08.436Z,-6.87
2022-12-05T22:32:11.639Z,-6.91
2022-12-05T22:35:14.998Z,-6.89
2022-12-05T22:38:18.377Z,-7.01
2022-12-05T22:41:25.111Z,-7.01
2022-12-05T22:44:28.540Z,-6.96
2022-12-05T22:47:31.692Z,-6.99
2022-12-05T22:50:34.863Z,-7.12
2022-12-05T22:53:39.187Z,-7.13
2022-12-05T22:56:42.384Z,-7.19
2022-12-05T22:59:45.526Z,-7.26
2022-12-05T23:02:48.788Z,-7.26
2022-12-05T23:05:52.011Z,-7.30
2022-12-05T23:08:55.937Z,-7.40
2022-12-05T23:11:59.154Z,-7.44
2022-12-05T23:15:02.421Z,-7.41
2022-12-05T23:18:05.934Z,-7.40
2022-12-05T23:21:09.075Z,-7.36
2022-12-05T23:24:13.707Z,-7.31
2022-12-05T23:27:19.465Z,-7.33
2022-12-05T23:30:22.833Z,-7.31
2022-12-05T23:33:27.116Z,-7.30
2022-12-05T23:36:30.352Z,-7.29
2022-12-05T23:39:33.560Z,-7.29
2022-12-05T23:42:36.762Z,-7.29
2022-12-05T23:45:39.988Z,-7.24
2022-12-05T23:48:49.538Z,-7.24
2022-12-05T23:51:52.761Z,-7.27
2022-12-05T23:54:56.270Z,-7.26
2022-12-05T23:57:59.455Z,-7.26
